Euro Snow — VQGH9 — position and weather

sailwx.info

Track history (hours):
 
Tides and Currents Weather Stations Pressure Air Temp Water Temp Dewpoint Dewpoint Depression Visibility Wind Speed Wind Dir Waves Ship Positions

Euro Snow

Last reported at 2015-Jul-03 19:33 UTC. Time now 2015-Jul-03 22:07 UTC.
Position N 50°37' E 000°36'.

Length 133 m; draft 6.6 m.

Type: Cargo ship. MMSI: 235613000.

Date/timePositionNaut miles runAvg speedWind from/ knotsBaromVisibWave heightAir tempDewpointWater temp
2015-Jul-03 19:33N 50°37' E 000°36'1817.9
2015-Jul-03 18:33N 50°47' E 000°58'1818.4
2015-Jul-03 17:33N 50°58' E 001°22'1717.0
2015-Jul-03 16:33N 51°11' E 001°40'1515.4
2015-Jul-03 15:33N 51°23' E 001°55'1514.6
2015-Jul-03 14:33N 51°34' E 002°10'1514.8
2015-Jul-03 13:34N 51°45' E 002°26'1615.6
2015-Jul-03 12:33N 51°57' E 002°43'1715.7
2015-Jul-03 11:29N 52°02' E 003°09'1616.8
2015-Jul-03 10:33N 52°03' E 003°34'1515.3
2015-Jul-03 09:34N 52°01' E 003°59'5 5.0
2015-Jul-03 08:32N 51°57' E 004°03'0 0.0
2015-Jul-03 07:33N 51°57' E 004°03'0 0.0
2015-Jul-03 06:32N 51°57' E 004°03'0 0.5
2015-Jul-03 05:33N 51°57' E 004°04'2 1.6
2015-Jul-03 04:31N 51°58' E 004°03'0 0.0
2015-Jul-03 03:31N 51°58' E 004°03'0 0.0
2015-Jul-03 02:31N 51°58' E 004°03'0 0.0
2015-Jul-03 01:31N 51°58' E 004°03'0 0.0
2015-Jul-03 00:32N 51°58' E 004°03'0 0.0
2015-Jul-02 23:33N 51°58' E 004°03'0 0.0
2015-Jul-02 22:31N 51°58' E 004°03'0 0.0
2015-Jul-02 21:31N 51°58' E 004°03'0 0.0
2015-Jul-02 20:33N 51°58' E 004°03'6 5.6
2015-Jul-02 19:34N 52°01' E 003°54'1515.3
2015-Jul-02 18:34N 52°15' E 003°47'1616.1
2015-Jul-02 17:34N 52°31' E 003°51'1515.3
2015-Jul-02 16:34N 52°46' E 003°56'1414.4
2015-Jul-02 15:33N 52°60' E 004°04'1515.2
2015-Jul-02 14:34N 53°09' E 004°24'1616.1
2015-Jul-02 13:34N 53°25' E 004°33'1716.8
2015-Jul-02 12:34N 53°40' E 004°42'1716.7
2015-Jul-02 11:33N 53°56' E 004°52'1616.2
2015-Jul-02 10:34N 54°10' E 005°04'3715.4
2015-Jul-02 08:09N 54°43' E 005°36'1315.2
2015-Jul-02 07:19N 54°53' E 005°48'1415.2
2015-Jul-02 06:22N 55°05' E 006°01'1415.7
2015-Jul-02 05:28N 55°18' E 006°15'10115.9
2015-Jul-01 23:04N 56°43' E 007°51'4616.3
2015-Jul-01 20:15N 57°17' E 008°48'1216.7
2015-Jul-01 19:30N 57°24' E 009°07'1616.8
2015-Jul-01 18:32N 57°32' E 009°34'1717.0
2015-Jul-01 17:34N 57°41' E 010°00'1716.5
2015-Jul-01 16:33N 57°47' E 010°29'1615.6
2015-Jul-01 15:34N 57°45' E 010°58'1716.5
2015-Jul-01 14:34N 57°39' E 011°27'1313.1
2015-Jul-01 13:33N 57°41' E 011°51'0 0.3
2015-Jul-01 12:32N 57°41' E 011°51'0 0.0
2015-Jul-01 11:32N 57°41' E 011°51'0 0.0
2015-Jul-01 10:32N 57°41' E 011°51'0 0.0
2015-Jul-01 09:32N 57°41' E 011°51'0 0.0
2015-Jul-01 08:32N 57°41' E 011°51'0 0.0
2015-Jul-01 07:33N 57°41' E 011°51'0 0.0
2015-Jul-01 06:33N 57°41' E 011°51'0 0.0
2015-Jul-01 05:33N 57°41' E 011°51'0 0.0
2015-Jul-01 04:33N 57°41' E 011°51'7 7.0
2015-Jul-01 03:33N 57°37' E 011°41'1414.5
2015-Jul-01 02:34N 57°23' E 011°39'1414.5
2015-Jul-01 01:34N 57°08' E 011°40'1514.6
2015-Jul-01 00:32N 56°54' E 011°48'1312.7
2015-Jun-30 23:33N 56°41' E 011°48'1814.3
2015-Jun-30 22:18N 56°27' E 011°28'3613.2
2015-Jun-30 19:33N 56°03' E 010°39'1414.1
2015-Jun-30 18:34N 56°09' E 010°16'1 1.2
2015-Jun-30 17:32N 56°09' E 010°14'0 0.0
2015-Jun-30 16:32N 56°09' E 010°14'0 0.0
2015-Jun-30 15:32N 56°09' E 010°14'1 0.9
2015-Jun-30 14:33N 56°09' E 010°16'4310.6
2015-Jun-30 10:28N 56°47' E 010°55'1313.8
2015-Jun-30 09:30N 57°00' E 010°51'1414.7
2015-Jun-30 08:33N 57°14' E 010°44'1515.6
2015-Jun-30 07:34N 57°29' E 010°43'1615.8
2015-Jun-30 06:33N 57°45' E 010°45'1715.9
2015-Jun-30 05:28N 57°42' E 010°12'36716.8
2015-Jun-29 07:33N 55°03' E 000°14'1716.9
2015-Jun-29 06:32N 54°56' W 000°13'1616.8
2015-Jun-29 05:33N 54°48' W 000°38'1916.6
2015-Jun-29 04:25N 54°40' W 001°07'2 0.2
2015-Jun-28 19:26N 54°38' W 001°09'1314.3
2015-Jun-28 18:33N 54°36' W 000°48'1616.0
2015-Jun-28 17:33N 54°28' W 000°24'1616.0
2015-Jun-28 16:33N 54°16' W 000°06'1616.0
2015-Jun-28 15:33N 54°04' E 000°13'5415.6
2015-Jun-28 12:03N 53°21' E 001°09'917.1
2015-Jun-28 11:33N 53°14' E 001°16'1817.6
2015-Jun-28 10:33N 52°58' E 001°31'1818.0
2015-Jun-28 09:33N 52°43' E 001°46'1616.1
2015-Jun-28 08:33N 52°27' E 001°51'1616.2
2015-Jun-28 07:33N 52°12' E 001°43'1515.0
2015-Jun-28 06:33N 51°58' E 001°34'10 9.8
2015-Jun-28 05:33N 51°57' E 001°18'0 0.0
2015-Jun-28 04:29N 51°57' E 001°18'0 0.0
2015-Jun-28 03:32N 51°57' E 001°18'0 0.0
2015-Jun-28 02:31N 51°57' E 001°18'0 0.0
2015-Jun-28 01:33N 51°57' E 001°18'0 0.0
2015-Jun-28 00:33N 51°57' E 001°18'0 0.0
2015-Jun-27 23:33N 51°57' E 001°18'0 0.0
2015-Jun-27 22:31N 51°57' E 001°18'0 0.0
2015-Jun-27 21:31N 51°57' E 001°18'0 0.0
2015-Jun-27 20:31N 51°57' E 001°18'0 0.0
2015-Jun-27 19:31N 51°57' E 001°18'2 2.1
2015-Jun-27 18:34N 51°56' E 001°19'10 9.6
2015-Jun-27 17:34N 51°52' E 001°34'4 3.5
2015-Jun-27 16:32N 51°53' E 001°40'0 0.1
2015-Jun-27 15:32N 51°53' E 001°40'0 0.1
2015-Jun-27 14:32N 51°54' E 001°40'0 0.0
2015-Jun-27 13:32N 51°54' E 001°40'0 0.0
2015-Jun-27 12:32N 51°54' E 001°40'0 0.0
2015-Jun-27 11:32N 51°54' E 001°40'0 0.0
2015-Jun-27 10:32N 51°54' E 001°40'0 0.0
2015-Jun-27 09:32N 51°54' E 001°40'0 0.0
2015-Jun-27 08:32N 51°54' E 001°40'0 0.0
2015-Jun-27 07:32N 51°53' E 001°40'0 0.1
2015-Jun-27 06:32N 51°53' E 001°40'0 0.0
2015-Jun-27 05:32N 51°53' E 001°40'0 0.0
2015-Jun-27 04:32N 51°53' E 001°40'0 0.0
2015-Jun-27 03:32N 51°53' E 001°40'0 0.1
2015-Jun-27 02:32N 51°53' E 001°40'0 0.1
2015-Jun-27 01:32N 51°54' E 001°40'0 0.0
2015-Jun-27 00:32N 51°54' E 001°40'0 0.1
2015-Jun-26 23:32N 51°54' E 001°40'0 0.0
2015-Jun-26 22:32N 51°54' E 001°40'0 0.0
2015-Jun-26 21:29N 51°54' E 001°40'0 0.0
2015-Jun-26 20:32N 51°54' E 001°40'4 4.5
2015-Jun-26 19:33N 51°51' E 001°46'1615.8
2015-Jun-26 18:33N 51°35' E 001°48'1716.7
2015-Jun-26 17:33N 51°19' E 001°42'1515.0
2015-Jun-26 16:33N 51°04' E 001°37'1716.3
2015-Jun-26 15:30N 50°50' E 001°23'1515.5
2015-Jun-26 14:33N 50°37' E 001°10'1716.3
2015-Jun-26 13:32N 50°29' E 000°47'1616.4
2015-Jun-26 12:33N 50°25' E 000°23'1616.2
2015-Jun-26 11:32N 50°20' W 000°02'1515.8
2015-Jun-26 10:33N 50°16' W 000°25'1615.4
2015-Jun-26 09:33N 50°11' W 000°48'1515.0
2015-Jun-26 08:33N 50°07' W 001°10'1515.0
2015-Jun-26 07:33N 50°03' W 001°33'1515.4
2015-Jun-26 06:33N 49°58' W 001°55'1616.0
2015-Jun-26 05:33N 49°53' W 002°19'2216.8
2015-Jun-26 04:15N 49°47' W 002°52'1217.0
2015-Jun-26 03:32N 49°41' W 003°08'6716.7
2015-Jun-25 23:31N 49°07' W 004°37'6516.5
2015-Jun-25 19:33N 48°24' W 005°52'1717.2
2015-Jun-25 18:33N 48°08' W 006°04'5016.8
2015-Jun-25 15:33N 47°23' W 006°38'20016.5
2015-Jun-25 03:26N 44°26' W 008°51'29910.0
2015-Jun-23 21:27N 39°30' W 009°43'1314.4
2015-Jun-23 20:33N 39°17' W 009°43'1414.6
2015-Jun-23 19:33N 39°02' W 009°43'  
Track history (hours):
 
Tides and Currents Weather Stations Pressure Air Temp Water Temp Dewpoint Dewpoint Depression Visibility Wind Speed Wind Dir Waves Ship Positions

Euro Snow

Last reported at 2015-Jul-03 19:33 UTC. Time now 2015-Jul-03 22:07 UTC.
Position N 50°37' E 000°36'.

Length 133 m; draft 6.6 m.

Type: Cargo ship. MMSI: 235613000.

Date/timePositionNaut miles runAvg speedWind from/ knotsBaromVisibWave heightAir tempDewpointWater temp
2015-Jul-03 19:33N 50°37' E 000°36'1817.9
2015-Jul-03 18:33N 50°47' E 000°58'1818.4
2015-Jul-03 17:33N 50°58' E 001°22'1717.0
2015-Jul-03 16:33N 51°11' E 001°40'1515.4
2015-Jul-03 15:33N 51°23' E 001°55'1514.6
2015-Jul-03 14:33N 51°34' E 002°10'1514.8
2015-Jul-03 13:34N 51°45' E 002°26'1615.6
2015-Jul-03 12:33N 51°57' E 002°43'1715.7
2015-Jul-03 11:29N 52°02' E 003°09'1616.8
2015-Jul-03 10:33N 52°03' E 003°34'1515.3
2015-Jul-03 09:34N 52°01' E 003°59'5 5.0
2015-Jul-03 08:32N 51°57' E 004°03'0 0.0
2015-Jul-03 07:33N 51°57' E 004°03'0 0.0
2015-Jul-03 06:32N 51°57' E 004°03'0 0.5
2015-Jul-03 05:33N 51°57' E 004°04'2 1.6
2015-Jul-03 04:31N 51°58' E 004°03'0 0.0
2015-Jul-03 03:31N 51°58' E 004°03'0 0.0
2015-Jul-03 02:31N 51°58' E 004°03'0 0.0
2015-Jul-03 01:31N 51°58' E 004°03'0 0.0
2015-Jul-03 00:32N 51°58' E 004°03'0 0.0
2015-Jul-02 23:33N 51°58' E 004°03'0 0.0
2015-Jul-02 22:31N 51°58' E 004°03'0 0.0
2015-Jul-02 21:31N 51°58' E 004°03'0 0.0
2015-Jul-02 20:33N 51°58' E 004°03'6 5.6
2015-Jul-02 19:34N 52°01' E 003°54'1515.3
2015-Jul-02 18:34N 52°15' E 003°47'1616.1
2015-Jul-02 17:34N 52°31' E 003°51'1515.3
2015-Jul-02 16:34N 52°46' E 003°56'1414.4
2015-Jul-02 15:33N 52°60' E 004°04'1515.2
2015-Jul-02 14:34N 53°09' E 004°24'1616.1
2015-Jul-02 13:34N 53°25' E 004°33'1716.8
2015-Jul-02 12:34N 53°40' E 004°42'1716.7
2015-Jul-02 11:33N 53°56' E 004°52'1616.2
2015-Jul-02 10:34N 54°10' E 005°04'3715.4
2015-Jul-02 08:09N 54°43' E 005°36'1315.2
2015-Jul-02 07:19N 54°53' E 005°48'1415.2
2015-Jul-02 06:22N 55°05' E 006°01'1415.7
2015-Jul-02 05:28N 55°18' E 006°15'10115.9
2015-Jul-01 23:04N 56°43' E 007°51'4616.3
2015-Jul-01 20:15N 57°17' E 008°48'1216.7
2015-Jul-01 19:30N 57°24' E 009°07'1616.8
2015-Jul-01 18:32N 57°32' E 009°34'1717.0
2015-Jul-01 17:34N 57°41' E 010°00'1716.5
2015-Jul-01 16:33N 57°47' E 010°29'1615.6
2015-Jul-01 15:34N 57°45' E 010°58'1716.5
2015-Jul-01 14:34N 57°39' E 011°27'1313.1
2015-Jul-01 13:33N 57°41' E 011°51'0 0.3
2015-Jul-01 12:32N 57°41' E 011°51'0 0.0
2015-Jul-01 11:32N 57°41' E 011°51'0 0.0
2015-Jul-01 10:32N 57°41' E 011°51'0 0.0
2015-Jul-01 09:32N 57°41' E 011°51'0 0.0
2015-Jul-01 08:32N 57°41' E 011°51'0 0.0
2015-Jul-01 07:33N 57°41' E 011°51'0 0.0
2015-Jul-01 06:33N 57°41' E 011°51'0 0.0
2015-Jul-01 05:33N 57°41' E 011°51'0 0.0
2015-Jul-01 04:33N 57°41' E 011°51'7 7.0
2015-Jul-01 03:33N 57°37' E 011°41'1414.5
2015-Jul-01 02:34N 57°23' E 011°39'1414.5
2015-Jul-01 01:34N 57°08' E 011°40'1514.6
2015-Jul-01 00:32N 56°54' E 011°48'1312.7
2015-Jun-30 23:33N 56°41' E 011°48'1814.3
2015-Jun-30 22:18N 56°27' E 011°28'3613.2
2015-Jun-30 19:33N 56°03' E 010°39'1414.1
2015-Jun-30 18:34N 56°09' E 010°16'1 1.2
2015-Jun-30 17:32N 56°09' E 010°14'0 0.0
2015-Jun-30 16:32N 56°09' E 010°14'0 0.0
2015-Jun-30 15:32N 56°09' E 010°14'1 0.9
2015-Jun-30 14:33N 56°09' E 010°16'4310.6
2015-Jun-30 10:28N 56°47' E 010°55'1313.8
2015-Jun-30 09:30N 57°00' E 010°51'1414.7
2015-Jun-30 08:33N 57°14' E 010°44'1515.6
2015-Jun-30 07:34N 57°29' E 010°43'1615.8
2015-Jun-30 06:33N 57°45' E 010°45'1715.9
2015-Jun-30 05:28N 57°42' E 010°12'36716.8
2015-Jun-29 07:33N 55°03' E 000°14'1716.9
2015-Jun-29 06:32N 54°56' W 000°13'1616.8
2015-Jun-29 05:33N 54°48' W 000°38'1916.6
2015-Jun-29 04:25N 54°40' W 001°07'2 0.2
2015-Jun-28 19:26N 54°38' W 001°09'1314.3
2015-Jun-28 18:33N 54°36' W 000°48'1616.0
2015-Jun-28 17:33N 54°28' W 000°24'1616.0
2015-Jun-28 16:33N 54°16' W 000°06'1616.0
2015-Jun-28 15:33N 54°04' E 000°13'5415.6
2015-Jun-28 12:03N 53°21' E 001°09'917.1
2015-Jun-28 11:33N 53°14' E 001°16'1817.6
2015-Jun-28 10:33N 52°58' E 001°31'1818.0
2015-Jun-28 09:33N 52°43' E 001°46'1616.1
2015-Jun-28 08:33N 52°27' E 001°51'1616.2
2015-Jun-28 07:33N 52°12' E 001°43'1515.0
2015-Jun-28 06:33N 51°58' E 001°34'10 9.8
2015-Jun-28 05:33N 51°57' E 001°18'0 0.0
2015-Jun-28 04:29N 51°57' E 001°18'0 0.0
2015-Jun-28 03:32N 51°57' E 001°18'0 0.0
2015-Jun-28 02:31N 51°57' E 001°18'0 0.0
2015-Jun-28 01:33N 51°57' E 001°18'0 0.0
2015-Jun-28 00:33N 51°57' E 001°18'0 0.0
2015-Jun-27 23:33N 51°57' E 001°18'0 0.0
2015-Jun-27 22:31N 51°57' E 001°18'0 0.0
2015-Jun-27 21:31N 51°57' E 001°18'0 0.0
2015-Jun-27 20:31N 51°57' E 001°18'0 0.0
2015-Jun-27 19:31N 51°57' E 001°18'2 2.1
2015-Jun-27 18:34N 51°56' E 001°19'10 9.6
2015-Jun-27 17:34N 51°52' E 001°34'4 3.5
2015-Jun-27 16:32N 51°53' E 001°40'0 0.1
2015-Jun-27 15:32N 51°53' E 001°40'0 0.1
2015-Jun-27 14:32N 51°54' E 001°40'0 0.0
2015-Jun-27 13:32N 51°54' E 001°40'0 0.0
2015-Jun-27 12:32N 51°54' E 001°40'0 0.0
2015-Jun-27 11:32N 51°54' E 001°40'0 0.0
2015-Jun-27 10:32N 51°54' E 001°40'0 0.0
2015-Jun-27 09:32N 51°54' E 001°40'0 0.0
2015-Jun-27 08:32N 51°54' E 001°40'0 0.0
2015-Jun-27 07:32N 51°53' E 001°40'0 0.1
2015-Jun-27 06:32N 51°53' E 001°40'0 0.0
2015-Jun-27 05:32N 51°53' E 001°40'0 0.0
2015-Jun-27 04:32N 51°53' E 001°40'0 0.0
2015-Jun-27 03:32N 51°53' E 001°40'0 0.1
2015-Jun-27 02:32N 51°53' E 001°40'0 0.1
2015-Jun-27 01:32N 51°54' E 001°40'0 0.0
2015-Jun-27 00:32N 51°54' E 001°40'0 0.1
2015-Jun-26 23:32N 51°54' E 001°40'0 0.0
2015-Jun-26 22:32N 51°54' E 001°40'0 0.0
2015-Jun-26 21:29N 51°54' E 001°40'0 0.0
2015-Jun-26 20:32N 51°54' E 001°40'4 4.5
2015-Jun-26 19:33N 51°51' E 001°46'1615.8
2015-Jun-26 18:33N 51°35' E 001°48'1716.7
2015-Jun-26 17:33N 51°19' E 001°42'1515.0
2015-Jun-26 16:33N 51°04' E 001°37'1716.3
2015-Jun-26 15:30N 50°50' E 001°23'1515.5
2015-Jun-26 14:33N 50°37' E 001°10'1716.3
2015-Jun-26 13:32N 50°29' E 000°47'1616.4
2015-Jun-26 12:33N 50°25' E 000°23'1616.2
2015-Jun-26 11:32N 50°20' W 000°02'1515.8
2015-Jun-26 10:33N 50°16' W 000°25'1615.4
2015-Jun-26 09:33N 50°11' W 000°48'1515.0
2015-Jun-26 08:33N 50°07' W 001°10'1515.0
2015-Jun-26 07:33N 50°03' W 001°33'1515.4
2015-Jun-26 06:33N 49°58' W 001°55'1616.0
2015-Jun-26 05:33N 49°53' W 002°19'2216.8
2015-Jun-26 04:15N 49°47' W 002°52'1217.0
2015-Jun-26 03:32N 49°41' W 003°08'6716.7
2015-Jun-25 23:31N 49°07' W 004°37'6516.5
2015-Jun-25 19:33N 48°24' W 005°52'1717.2
2015-Jun-25 18:33N 48°08' W 006°04'5016.8
2015-Jun-25 15:33N 47°23' W 006°38'20016.5
2015-Jun-25 03:26N 44°26' W 008°51'29910.0
2015-Jun-23 21:27N 39°30' W 009°43'1314.4
2015-Jun-23 20:33N 39°17' W 009°43'1414.6
2015-Jun-23 19:33N 39°02' W 009°43'  

Dump ship's entire track history